Time;durP1;ratioP1;P1;durP2;ratioP2;P2;SDS_P1;SDS_P2;PMS_P1;PMS_P2;Temp;Humidity;BMP_temperature;BMP_pressure;BME280_temperature;BME280_humidity;BME280_pressure;Samples;Min_cycle;Max_cycle;Signal;HPM_P1;HPM_P2
2022/11/19 00:00:49;;;;;;;2.65;2.05;;;;;;;11.31;100.00;92438.75;5078738;28;20068;-35
2022/11/19 00:03:16;;;;;;;2.67;2.15;;;;;;;11.31;99.57;92433.97;5089203;28;20024;-35
2022/11/19 00:05:43;;;;;;;3.05;1.77;;;;;;;11.25;100.00;92436.28;5077233;28;20400;-35
2022/11/19 00:08:09;;;;;;;4.15;2.58;;;;;;;11.24;99.89;92448.63;5085823;28;20089;-35
2022/11/19 00:10:38;;;;;;;4.30;2.45;;;;;;;11.14;100.00;92438.84;5084185;28;20020;-36
2022/11/19 00:13:06;;;;;;;2.90;1.90;;;;;;;11.27;99.42;92446.75;5086510;28;20385;-35
2022/11/19 00:15:35;;;;;;;13.75;8.02;;;;;;;11.23;99.18;92429.88;5088787;28;20495;-35
2022/11/19 00:18:02;;;;;;;6.35;3.80;;;;;;;11.35;98.83;92439.06;5081562;28;20040;-35
2022/11/19 00:20:28;;;;;;;4.68;2.03;;;;;;;11.33;98.31;92436.16;5080528;28;20025;-35
2022/11/19 00:22:55;;;;;;;2.85;2.10;;;;;;;11.38;97.81;92451.72;5083665;28;20179;-35
2022/11/19 00:25:22;;;;;;;4.47;2.20;;;;;;;11.37;97.63;92466.84;5082025;28;20153;-35
2022/11/19 00:27:48;;;;;;;4.57;2.60;;;;;;;11.35;97.77;92472.94;5086108;28;20105;-35
2022/11/19 00:30:14;;;;;;;3.97;2.72;;;;;;;11.38;97.46;92479.38;5086315;28;20505;-35
2022/11/19 00:32:39;;;;;;;3.70;2.08;;;;;;;11.39;97.28;92467.72;5088024;28;20028;-35
2022/11/19 00:35:05;;;;;;;3.15;2.65;;;;;;;11.44;97.51;92474.28;5086553;28;20077;-35
2022/11/19 00:37:31;;;;;;;5.90;3.30;;;;;;;11.44;97.45;92477.06;5085765;28;20020;-35
2022/11/19 00:39:57;;;;;;;4.43;2.33;;;;;;;11.44;97.77;92472.25;5064820;28;20031;-35
2022/11/19 00:42:23;;;;;;;2.45;1.90;;;;;;;11.42;98.19;92472.09;5084167;28;20020;-35
2022/11/19 00:44:48;;;;;;;3.38;2.53;;;;;;;11.40;97.93;92485.03;5086790;28;20054;-35
2022/11/19 00:47:14;;;;;;;4.72;2.65;;;;;;;11.42;97.91;92490.72;5074810;28;20056;-35
2022/11/19 00:49:40;;;;;;;2.88;2.25;;;;;;;11.43;97.65;92492.91;5082030;28;20016;-35
2022/11/19 00:52:05;;;;;;;6.82;2.08;;;;;;;11.52;97.57;92491.47;5082891;28;20035;-35
2022/11/19 00:54:31;;;;;;;2.33;2.13;;;;;;;11.52;97.42;92485.94;5084851;28;20017;-35
2022/11/19 00:56:56;;;;;;;3.42;1.52;;;;;;;11.51;97.62;92494.81;5082342;28;20415;-35
2022/11/19 00:59:22;;;;;;;2.30;2.10;;;;;;;11.52;97.60;92488.00;5082945;28;20071;-35
2022/11/19 01:01:47;;;;;;;3.38;2.60;;;;;;;11.56;97.50;92489.03;5078588;28;20086;-35
2022/11/19 01:04:13;;;;;;;8.35;2.92;;;;;;;11.52;97.73;92488.69;5076529;28;20527;-35
2022/11/19 01:06:38;;;;;;;4.07;2.28;;;;;;;11.60;97.65;92483.78;5080564;28;20043;-35
2022/11/19 01:09:04;;;;;;;1.63;1.48;;;;;;;11.52;97.99;92490.75;5083992;28;20028;-34
2022/11/19 01:11:32;;;;;;;4.15;2.22;;;;;;;11.54;98.09;92496.44;5084280;28;20027;-34
2022/11/19 01:13:58;;;;;;;3.70;2.00;;;;;;;11.60;97.80;92494.84;5082368;28;20520;-35
2022/11/19 01:16:30;;;;;;;2.55;1.67;;;;;;;11.61;96.96;92488.00;5081901;28;20034;-35
2022/11/19 01:18:56;;;;;;;3.28;1.88;;;;;;;11.57;97.33;92504.28;5085263;28;20054;-35
2022/11/19 01:21:24;;;;;;;5.15;1.98;;;;;;;11.60;97.02;92491.34;5074274;28;20106;-36
2022/11/19 01:23:50;;;;;;;2.67;1.75;;;;;;;11.53;96.62;92492.94;5079901;28;20514;-35
2022/11/19 01:26:16;;;;;;;2.53;1.83;;;;;;;11.50;96.98;92494.09;5087248;28;20035;-35
2022/11/19 01:28:45;;;;;;;3.88;2.90;;;;;;;11.31;97.99;92488.50;5085828;28;20116;-35
2022/11/19 01:31:17;;;;;;;3.58;2.20;;;;;;;11.21;98.98;92482.94;5081493;28;20032;-35
2022/11/19 01:33:42;;;;;;;3.70;1.77;;;;;;;11.25;98.85;92480.50;5070728;28;20055;-36
2022/11/19 01:36:14;;;;;;;1.80;1.60;;;;;;;11.14;98.82;92472.00;5085245;28;20020;-35
2022/11/19 01:38:39;;;;;;;1.98;1.75;;;;;;;11.14;98.80;92475.50;5082250;28;20487;-35
2022/11/19 01:41:05;;;;;;;2.40;1.73;;;;;;;11.17;97.42;92479.16;5084099;28;20158;-36
2022/11/19 01:43:39;;;;;;;2.50;1.77;;;;;;;10.87;96.71;92479.59;5084462;28;20106;-36
2022/11/19 01:46:05;;;;;;;2.83;2.10;;;;;;;10.95;96.14;92485.75;5076263;28;20038;-35
2022/11/19 01:48:32;;;;;;;2.75;2.13;;;;;;;10.91;95.63;92485.44;5081117;28;20028;-35
2022/11/19 01:51:01;;;;;;;1.77;1.65;;;;;;;10.92;95.38;92478.59;5060871;28;20028;-34
2022/11/19 01:53:27;;;;;;;;;;;;;;;10.77;94.76;92489.84;5069124;28;20024;-35
2022/11/19 01:56:02;;;;;;;3.25;2.38;;;;;;;10.61;94.93;92494.88;5078158;28;19943;-35
2022/11/19 01:58:33;;;;;;;4.47;3.38;;;;;;;10.53;95.09;92508.00;5078803;28;20089;-35
2022/11/19 02:00:59;;;;;;;4.30;3.35;;;;;;;10.48;96.36;92506.25;5063715;28;20442;-35
2022/11/19 02:03:26;;;;;;;3.80;2.97;;;;;;;10.43;95.62;92507.97;5064657;28;20073;-35
2022/11/19 02:05:52;;;;;;;6.13;2.95;;;;;;;10.09;95.26;92507.94;5065915;28;20027;-35
2022/11/19 02:08:39;;;;;;;4.63;3.65;;;;;;;10.10;95.82;92514.19;5081674;28;20028;-35
2022/11/19 02:11:21;;;;;;;4.47;3.20;;;;;;;10.13;96.20;92524.13;5081857;28;20484;-35
2022/11/19 02:14:09;;;;;;;3.85;2.80;;;;;;;10.02;97.34;92521.84;5062434;28;20024;-35
2022/11/19 02:17:10;;;;;;;4.13;2.75;;;;;;;9.89;97.88;92517.38;5086461;28;20059;-35
2022/11/19 02:19:54;;;;;;;3.70;2.70;;;;;;;10.07;97.14;92512.59;5054815;28;20051;-35
2022/11/19 02:22:41;;;;;;;5.25;3.67;;;;;;;10.10;95.68;92503.16;5078767;28;20027;-35
2022/11/19 02:25:34;;;;;;;6.72;2.83;;;;;;;10.04;96.08;92511.69;5074871;28;20031;-35
2022/11/19 02:28:34;;;;;;;8.57;3.85;;;;;;;9.99;95.09;92509.91;5077423;28;20077;-34
2022/11/19 02:31:14;;;;;;;3.65;3.08;;;;;;;9.99;94.44;92525.72;5075388;28;20115;-35
2022/11/19 02:34:21;;;;;;;5.88;3.05;;;;;;;9.92;94.34;92524.50;5064946;28;20036;-35
2022/11/19 02:36:58;;;;;;;13.15;5.07;;;;;;;9.71;94.67;92518.63;5026485;28;20033;-35
2022/11/19 02:39:35;;;;;;;11.38;6.45;;;;;;;9.64;95.76;92514.66;5010416;28;20095;-36
2022/11/19 02:42:05;;;;;;;9.57;6.15;;;;;;;9.74;95.12;92523.03;5062836;28;20115;-35
2022/11/19 02:47:20;;;;;;;;;;;;;;;9.62;95.97;92528.28;5063806;28;20479;-34
2022/11/19 02:49:53;;;;;;;88.70;10.48;;;;;;;9.72;96.11;92531.13;5064861;28;19962;-34
2022/11/19 02:52:19;;;;;;;70.22;9.85;;;;;;;9.62;96.18;92522.03;5066593;28;20028;-34
2022/11/19 02:54:44;;;;;;;154.07;12.27;;;;;;;9.64;96.65;92544.22;5079399;28;20086;-34
2022/11/19 02:57:11;;;;;;;170.15;12.88;;;;;;;9.77;96.55;92536.41;5081539;28;20017;-34
2022/11/19 03:05:21;;;;;;;127.05;11.02;;;;;;;9.78;96.67;92542.66;5073435;28;20031;-35
2022/11/19 03:07:47;;;;;;;132.63;11.52;;;;;;;9.64;96.94;92558.00;5083349;28;20028;-35
2022/11/19 03:10:13;;;;;;;83.68;7.80;;;;;;;9.68;97.48;92564.59;5084501;28;20100;-35
2022/11/19 03:12:51;;;;;;;79.53;9.93;;;;;;;9.77;96.39;92566.72;5084324;28;20028;-35
2022/11/19 03:18:31;;;;;;;47.42;4.20;;;;;;;9.71;97.61;92579.28;5067700;28;20127;-34
2022/11/19 03:21:05;;;;;;;44.28;7.00;;;;;;;9.66;96.62;92588.50;5090772;28;20066;-34
2022/11/19 03:23:48;;;;;;;52.08;5.70;;;;;;;9.67;95.39;92592.72;5070373;28;20031;-34
2022/11/19 03:26:26;;;;;;;27.08;6.43;;;;;;;9.54;95.25;92590.25;5057920;28;20024;-34
2022/11/19 03:28:52;;;;;;;56.70;6.97;;;;;;;9.51;94.31;92599.63;5073110;28;20032;-35
2022/11/19 03:31:19;;;;;;;63.13;6.90;;;;;;;9.52;94.69;92599.09;5072527;28;20028;-35
2022/11/19 03:33:48;;;;;;;73.97;13.40;;;;;;;9.48;94.89;92611.78;5085252;28;20036;-34
2022/11/19 03:36:19;;;;;;;38.03;10.37;;;;;;;9.52;94.08;92598.34;5070002;28;20027;-35
2022/11/19 03:38:49;;;;;;;43.65;9.15;;;;;;;9.40;93.83;92600.09;5068047;28;20028;-34
2022/11/19 03:41:16;;;;;;;39.65;7.90;;;;;;;9.27;93.86;92612.09;5085028;28;20027;-35
2022/11/19 03:43:44;;;;;;;111.28;48.72;;;;;;;9.30;93.68;92607.50;5049361;28;20476;-35
2022/11/19 03:46:13;;;;;;;30.40;16.58;;;;;;;9.26;92.08;92596.16;5070176;28;20036;-34
2022/11/19 03:48:40;;;;;;;93.63;40.28;;;;;;;9.10;91.84;92615.50;5082405;28;20028;-35
2022/11/19 03:51:15;;;;;;;57.35;21.17;;;;;;;8.98;92.78;92613.75;5073345;28;20103;-34
2022/11/19 03:53:40;;;;;;;29.23;13.40;;;;;;;8.90;93.18;92622.03;5073530;28;20492;-34
2022/11/19 03:56:11;;;;;;;72.85;18.35;;;;;;;8.81;94.22;92613.66;5090177;28;20031;-34
2022/11/19 03:58:43;;;;;;;33.28;11.48;;;;;;;8.87;94.08;92614.91;5088616;28;20028;-34
2022/11/19 04:01:09;;;;;;;99.20;45.22;;;;;;;8.74;95.51;92625.41;5083072;28;20748;-34
2022/11/19 04:03:35;;;;;;;99.90;34.30;;;;;;;8.72;96.08;92634.25;5083258;28;20020;-34
2022/11/19 04:06:01;;;;;;;46.70;15.10;;;;;;;8.86;95.66;92624.44;5089965;28;20019;-35
2022/11/19 04:08:26;;;;;;;23.13;12.13;;;;;;;8.80;95.89;92642.44;5081658;28;20062;-34
2022/11/19 04:10:51;;;;;;;46.85;10.30;;;;;;;8.78;96.78;92648.53;5085151;28;20114;-34
2022/11/19 04:13:17;;;;;;;19.88;4.68;;;;;;;8.82;97.00;92635.09;5073339;28;20031;-35
2022/11/19 04:15:42;;;;;;;73.13;6.47;;;;;;;8.79;96.77;92636.22;5084836;28;20032;-35
2022/11/19 04:18:08;;;;;;;42.60;15.88;;;;;;;8.75;97.61;92643.41;5090132;28;20054;-34
2022/11/19 04:20:33;;;;;;;44.17;8.23;;;;;;;8.59;98.03;92628.97;5086835;28;20032;-34
2022/11/19 04:22:59;;;;;;;36.22;11.02;;;;;;;8.72;98.00;92628.00;5087117;28;20043;-34
2022/11/19 04:25:27;;;;;;;49.03;9.20;;;;;;;8.52;96.68;92621.47;5087184;28;20032;-34
2022/11/19 04:27:52;;;;;;;24.75;16.00;;;;;;;8.54;97.52;92646.41;5068107;28;20032;-34
2022/11/19 04:30:18;;;;;;;42.30;9.10;;;;;;;8.58;97.71;92640.50;5090136;28;20020;-34
2022/11/19 04:32:44;;;;;;;32.75;7.93;;;;;;;8.54;96.88;92651.91;5088999;28;20028;-34
2022/11/19 04:35:09;;;;;;;19.83;10.38;;;;;;;8.46;97.25;92673.19;5085713;28;20032;-34
2022/11/19 04:37:38;;;;;;;41.65;8.02;;;;;;;8.47;97.57;92649.19;5087117;28;20028;-34
2022/11/19 04:40:03;;;;;;;23.10;6.63;;;;;;;8.33;97.22;92674.16;5085845;28;20040;-35
2022/11/19 04:42:29;;;;;;;44.72;9.85;;;;;;;8.43;98.13;92690.81;5087206;28;20441;-34
2022/11/19 04:44:54;;;;;;;35.15;10.20;;;;;;;8.56;98.28;92670.59;5088619;28;20057;-34
2022/11/19 04:47:20;;;;;;;45.55;10.85;;;;;;;8.51;97.89;92680.50;5086334;28;20024;-34
2022/11/19 04:49:48;;;;;;;56.58;9.60;;;;;;;8.51;97.71;92686.00;5089637;28;20048;-34
2022/11/19 04:52:13;;;;;;;71.72;12.75;;;;;;;8.54;97.94;92684.19;5081874;28;20456;-34
2022/11/19 04:54:39;;;;;;;33.08;8.48;;;;;;;8.52;97.12;92695.75;5087031;28;20070;-34
2022/11/19 04:57:05;;;;;;;53.15;11.23;;;;;;;8.56;96.39;92700.84;5081883;28;20037;-34
2022/11/19 04:59:30;;;;;;;28.77;12.13;;;;;;;8.43;95.33;92693.56;5086096;28;20016;-35
2022/11/19 05:01:55;;;;;;;22.80;11.50;;;;;;;8.48;94.83;92708.41;5087904;28;20028;-34
2022/11/19 05:04:24;;;;;;;31.30;7.45;;;;;;;8.52;94.47;92704.00;5089523;28;20031;-34
2022/11/19 05:06:49;;;;;;;22.92;5.47;;;;;;;8.48;93.77;92708.41;5079279;28;20599;-35
2022/11/19 05:09:14;;;;;;;43.53;9.18;;;;;;;8.32;94.65;92718.69;5079443;28;20024;-34
2022/11/19 05:11:43;;;;;;;36.75;11.55;;;;;;;8.43;94.84;92717.56;5084748;28;20502;-36
2022/11/19 05:14:08;;;;;;;37.92;10.90;;;;;;;8.48;94.79;92722.16;5087912;28;20055;-35
2022/11/19 05:16:34;;;;;;;34.75;7.65;;;;;;;8.35;94.84;92728.59;5086454;28;20472;-35
2022/11/19 05:18:59;;;;;;;29.45;5.70;;;;;;;8.34;94.61;92735.38;5082178;28;20120;-34
2022/11/19 05:21:25;;;;;;;23.80;6.43;;;;;;;8.39;94.89;92748.22;5074408;28;20417;-34
2022/11/19 05:23:50;;;;;;;14.43;4.68;;;;;;;8.41;95.28;92748.38;5084494;28;20020;-34
2022/11/19 05:26:16;;;;;;;29.33;3.92;;;;;;;8.41;94.95;92753.88;5083401;28;20503;-34
2022/11/19 05:28:45;;;;;;;6.38;4.18;;;;;;;8.36;95.81;92752.06;5088618;28;20024;-34
2022/11/19 05:31:10;;;;;;;8.68;3.70;;;;;;;8.34;95.66;92765.63;5087026;28;20028;-35
2022/11/19 05:33:35;;;;;;;15.88;3.97;;;;;;;8.31;95.84;92770.22;5083559;28;20065;-35
2022/11/19 05:36:01;;;;;;;64.40;9.90;;;;;;;8.32;96.22;92773.69;5085521;28;20016;-34
2022/11/19 05:38:30;;;;;;;7.80;2.50;;;;;;;8.38;95.65;92772.22;5069881;28;20074;-35
2022/11/19 05:40:55;;;;;;;3.60;1.67;;;;;;;8.37;94.71;92778.28;5086936;28;20032;-35
2022/11/19 05:43:24;;;;;;;1.77;1.50;;;;;;;8.29;95.25;92783.78;5078022;28;20415;-34
2022/11/19 05:45:52;;;;;;;1.40;1.30;;;;;;;8.29;95.49;92775.53;5079420;28;20078;-35
2022/11/19 05:48:17;;;;;;;2.13;1.92;;;;;;;8.30;96.02;92773.50;5078576;28;20469;-35
2022/11/19 05:50:43;;;;;;;2.63;2.13;;;;;;;8.33;96.50;92769.66;5083261;28;20111;-35
2022/11/19 05:53:10;;;;;;;3.63;2.78;;;;;;;8.51;96.42;92785.06;5086524;28;20024;-34
2022/11/19 05:55:38;;;;;;;4.53;3.20;;;;;;;8.59;96.15;92783.03;5081066;28;20024;-35
2022/11/19 05:58:03;;;;;;;11.77;8.23;;;;;;;8.67;95.43;92794.78;5089029;28;20423;-35
2022/11/19 06:00:29;;;;;;;11.38;8.25;;;;;;;8.75;94.26;92801.00;5085762;28;20028;-34
2022/11/19 06:02:55;;;;;;;14.27;7.85;;;;;;;8.65;93.34;92794.59;5083642;28;20531;-35
2022/11/19 06:05:20;;;;;;;15.98;11.05;;;;;;;8.69;93.35;92808.72;5082444;28;20028;-34
2022/11/19 06:07:46;;;;;;;20.48;11.98;;;;;;;8.74;92.35;92810.53;5075332;28;20035;-34
2022/11/19 06:10:11;;;;;;;12.75;8.10;;;;;;;8.84;91.88;92811.44;5075953;28;20026;-35
2022/11/19 06:12:40;;;;;;;11.75;7.65;;;;;;;8.86;92.57;92808.13;5085281;28;20389;-35
2022/11/19 06:15:07;;;;;;;17.25;9.48;;;;;;;8.91;92.81;92810.72;5083469;28;20028;-35
2022/11/19 06:17:32;;;;;;;18.73;10.27;;;;;;;9.11;92.24;92826.28;5085604;28;20081;-35
2022/11/19 06:20:01;;;;;;;24.25;12.18;;;;;;;9.29;91.90;92818.16;5087249;28;20035;-34
2022/11/19 06:22:27;;;;;;;70.78;18.63;;;;;;;9.45;90.92;92823.03;5078670;28;20037;-34
2022/11/19 06:24:53;;;;;;;52.58;16.98;;;;;;;9.63;90.80;92827.41;5088935;28;20032;-34
2022/11/19 06:27:18;;;;;;;35.17;15.23;;;;;;;9.86;91.41;92827.28;5088731;28;20093;-35
2022/11/19 06:29:44;;;;;;;70.80;25.38;;;;;;;10.08;88.99;92836.72;5083342;28;20024;-34
2022/11/19 06:32:10;;;;;;;73.72;27.90;;;;;;;10.20;85.93;92844.03;5089173;28;20027;-35
2022/11/19 06:34:39;;;;;;;63.03;22.83;;;;;;;10.22;84.22;92837.97;5091228;28;20028;-35
2022/11/19 06:37:07;;;;;;;39.63;21.03;;;;;;;10.18;83.78;92852.13;5089084;28;20439;-35
2022/11/19 06:39:33;;;;;;;34.17;19.75;;;;;;;10.22;84.32;92857.28;5083333;28;20036;-34
2022/11/19 06:42:34;;;;;;;32.47;22.38;;;;;;;10.24;84.26;92857.44;5085442;28;20417;-35
2022/11/19 06:44:44;;;;;;;31.35;20.00;;;;;;;10.20;84.99;92862.63;5078196;28;20136;-35
2022/11/19 06:47:09;;;;;;;25.35;17.33;;;;;;;10.57;83.83;92870.66;5075918;28;20052;-35
2022/11/19 06:49:35;;;;;;;22.33;15.60;;;;;;;11.42;79.90;92874.91;5079581;28;20115;-35
2022/11/19 06:52:00;;;;;;;32.40;22.58;;;;;;;12.11;76.95;92873.59;5074738;28;20115;-37
2022/11/19 06:54:26;;;;;;;16.25;11.63;;;;;;;13.12;73.21;92875.88;5080223;28;20056;-38
2022/11/19 06:56:51;;;;;;;10.57;7.38;;;;;;;13.48;70.93;92884.13;5076588;28;20059;-37
2022/11/19 06:59:17;;;;;;;13.02;9.88;;;;;;;13.46;71.45;92899.88;5080678;28;20120;-38
2022/11/19 07:01:42;;;;;;;11.13;9.13;;;;;;;13.32;72.22;92899.53;5075339;28;20032;-37
2022/11/19 07:04:09;;;;;;;21.67;13.60;;;;;;;13.39;72.78;92912.56;5080248;28;20027;-37
2022/11/19 07:06:34;;;;;;;27.50;15.10;;;;;;;13.30;72.26;92910.47;5080655;28;20024;-35
2022/11/19 07:09:00;;;;;;;19.67;10.70;;;;;;;13.10;72.09;92913.78;5076737;28;20106;-35
2022/11/19 07:11:26;;;;;;;17.45;9.48;;;;;;;12.85;72.94;92917.44;5076967;28;20507;-34
2022/11/19 07:13:58;;;;;;;16.42;8.73;;;;;;;12.73;73.47;92921.31;5080537;28;20031;-34
2022/11/19 07:16:32;;;;;;;8.30;3.28;;;;;;;12.59;73.41;92932.03;5057835;28;20036;-35
2022/11/19 07:18:59;;;;;;;9.15;4.05;;;;;;;12.39;74.23;92924.91;5078369;28;20877;-35
2022/11/19 07:21:25;;;;;;;19.83;6.40;;;;;;;12.22;75.59;92922.16;5076588;28;20131;-35
2022/11/19 07:23:51;;;;;;;15.68;3.22;;;;;;;12.43;76.35;92921.72;5075983;28;20028;-34
2022/11/19 07:26:22;;;;;;;22.20;3.85;;;;;;;12.61;76.26;92926.66;5078503;28;20039;-34
2022/11/19 07:28:51;;;;;;;2.00;1.52;;;;;;;13.06;75.04;92930.09;5068907;28;20052;-34
2022/11/19 07:31:16;;;;;;;4.05;1.80;;;;;;;13.52;73.38;92931.56;5067256;28;20828;-34
2022/11/19 07:33:42;;;;;;;13.48;6.07;;;;;;;14.09;73.17;92949.59;5079865;28;20044;-35
2022/11/19 07:36:09;;;;;;;4.07;3.33;;;;;;;14.66;71.01;92940.53;5087538;28;20031;-35
2022/11/19 07:38:40;;;;;;;7.05;3.88;;;;;;;15.35;68.90;92937.69;5086395;28;20447;-35
2022/11/19 07:42:48;;;;;;;3.67;3.03;;;;;;;16.01;65.65;92921.94;5091187;28;20040;-35
2022/11/19 07:43:51;;;;;;;9.23;8.07;;;;;;;16.94;63.37;92915.41;5078287;28;20029;-35
2022/11/19 07:46:16;;;;;;;8.32;6.82;;;;;;;18.19;59.25;92914.56;5078931;28;20029;-35
2022/11/19 07:48:42;;;;;;;10.15;7.53;;;;;;;19.29;55.01;92917.19;5078127;28;20032;-35
2022/11/19 07:51:07;;;;;;;11.13;8.70;;;;;;;20.56;53.38;92909.00;5086687;28;20404;-36
2022/11/19 07:53:33;;;;;;;11.75;9.25;;;;;;;22.10;49.20;92917.53;5082298;28;20434;-36
2022/11/19 07:55:59;;;;;;;6.13;5.05;;;;;;;23.19;45.54;92928.41;5079517;28;20397;-35
2022/11/19 07:58:28;;;;;;;5.25;4.40;;;;;;;24.10;43.44;92924.13;5077825;28;20048;-34
2022/11/19 08:00:53;;;;;;;3.58;3.28;;;;;;;24.62;42.04;92928.03;5080962;28;20029;-33
2022/11/19 08:03:19;;;;;;;3.05;2.75;;;;;;;25.18;39.32;92937.66;5083511;28;20110;-34
2022/11/19 08:05:47;;;;;;;2.75;2.55;;;;;;;25.74;39.27;92933.78;5084928;28;20038;-34
2022/11/19 08:08:12;;;;;;;2.60;2.40;;;;;;;26.06;37.01;92942.47;5082270;28;20031;-34
2022/11/19 08:10:40;;;;;;;2.95;2.25;;;;;;;26.80;37.56;92943.84;5086465;28;20024;-34
2022/11/19 08:13:06;;;;;;;4.22;3.20;;;;;;;27.09;37.37;92939.63;5084563;28;20020;-34
2022/11/19 08:15:33;;;;;;;2.30;2.10;;;;;;;27.71;36.04;92944.69;5081943;28;20039;-34
2022/11/19 08:18:14;;;;;;;2.33;2.13;;;;;;;28.19;34.92;92953.53;5080696;28;20080;-34
2022/11/19 08:20:47;;;;;;;4.53;3.28;;;;;;;28.38;33.62;92957.47;5082569;28;20039;-34
2022/11/19 08:23:13;;;;;;;9.48;6.53;;;;;;;29.03;32.11;92967.97;5079831;28;20029;-34
2022/11/19 08:25:43;;;;;;;10.05;6.90;;;;;;;29.42;31.36;92964.41;5082441;28;20507;-34
2022/11/19 08:28:16;;;;;;;4.22;3.25;;;;;;;29.27;31.37;92962.72;5079421;28;20122;-35
2022/11/19 08:30:41;;;;;;;10.80;9.93;;;;;;;28.64;31.85;92954.44;5082414;28;20078;-34
2022/11/19 08:33:07;;;;;;;4.25;3.13;;;;;;;29.11;33.19;92956.72;5076278;28;20504;-34
2022/11/19 08:35:39;;;;;;;6.50;3.50;;;;;;;29.24;31.75;92952.72;5079448;28;20056;-34
2022/11/19 08:38:04;;;;;;;4.60;3.33;;;;;;;29.64;32.79;92950.53;5076938;28;20067;-34
2022/11/19 08:40:30;;;;;;;3.58;1.95;;;;;;;29.73;31.50;92960.63;5076367;28;20055;-35
2022/11/19 08:43:01;;;;;;;3.80;2.53;;;;;;;29.74;30.01;92964.19;5078411;28;20063;-34
2022/11/19 08:45:32;;;;;;;2.97;1.60;;;;;;;29.74;29.00;92967.78;5075480;28;20040;-34
2022/11/19 08:47:59;;;;;;;1.73;1.15;;;;;;;28.94;30.71;92955.00;5075742;28;20025;-34
2022/11/19 08:50:28;;;;;;;2.38;2.17;;;;;;;28.94;32.30;92969.94;5078196;28;20021;-35
2022/11/19 08:52:59;;;;;;;4.38;1.60;;;;;;;29.15;31.67;92962.50;5080174;28;20062;-34
2022/11/19 08:55:25;;;;;;;3.95;2.47;;;;;;;29.65;30.99;92943.41;5083970;28;20161;-34
2022/11/19 08:57:51;;;;;;;2.08;1.40;;;;;;;30.10;30.42;92939.13;5082890;28;20051;-34
2022/11/19 09:00:19;;;;;;;1.40;1.30;;;;;;;30.47;30.36;92938.16;5078107;28;20052;-34
2022/11/19 09:02:45;;;;;;;4.00;1.60;;;;;;;30.76;29.93;92939.22;5079774;28;20512;-35
2022/11/19 09:05:10;;;;;;;1.42;1.20;;;;;;;30.80;28.22;92938.56;5082870;28;20028;-38
2022/11/19 09:07:35;;;;;;;1.23;1.00;;;;;;;30.90;28.61;92938.66;5081955;28;20031;-34
2022/11/19 09:10:01;;;;;;;1.77;1.48;;;;;;;31.05;28.47;92940.25;5079084;28;20041;-34
2022/11/19 09:12:29;;;;;;;9.35;3.72;;;;;;;31.16;29.47;92944.63;5080188;28;20025;-34
2022/11/19 09:14:54;;;;;;;8.30;4.70;;;;;;;30.23;30.37;92945.69;5088706;28;20113;-34
2022/11/19 09:17:20;;;;;;;2.70;2.00;;;;;;;30.67;29.44;92944.09;5085439;28;20826;-34
2022/11/19 09:19:45;;;;;;;2.10;1.15;;;;;;;30.15;29.57;92949.13;5079028;28;20119;-34
2022/11/19 09:22:12;;;;;;;7.13;3.33;;;;;;;30.53;29.82;92951.78;5077028;28;20049;-34
2022/11/19 09:24:40;;;;;;;2.75;1.48;;;;;;;30.84;29.06;92950.69;5082424;28;20121;-34
2022/11/19 09:27:06;;;;;;;7.28;5.93;;;;;;;30.87;28.59;92946.47;5075937;28;20028;-34
2022/11/19 09:29:32;;;;;;;2.33;1.90;;;;;;;31.64;28.56;92939.34;5077250;28;20038;-34
2022/11/19 09:31:57;;;;;;;2.55;1.90;;;;;;;31.72;27.67;92947.25;5082873;28;20066;-34
2022/11/19 09:34:23;;;;;;;2.47;1.58;;;;;;;31.34;26.91;92951.22;5075394;28;20055;-34
2022/11/19 09:36:48;;;;;;;3.70;2.00;;;;;;;31.45;27.46;92948.50;5077668;28;20032;-34
2022/11/19 09:39:14;;;;;;;2.55;1.77;;;;;;;31.24;27.88;92939.72;5082015;28;20307;-34
2022/11/19 09:41:49;;;;;;;1.45;1.10;;;;;;;31.30;27.34;92941.91;5081242;28;20036;-34
2022/11/19 09:44:39;;;;;;;3.17;1.10;;;;;;;31.35;25.90;92941.25;5062046;28;20089;-34
2022/11/19 09:47:08;;;;;;;2.75;1.10;;;;;;;31.36;26.56;92939.81;5087947;28;20036;-34
2022/11/19 09:49:40;;;;;;;3.95;2.80;;;;;;;30.95;27.30;92934.47;5085171;28;20512;-34
2022/11/19 09:52:11;;;;;;;1.75;1.13;;;;;;;31.24;25.93;92933.28;5084330;28;20722;-34
2022/11/19 09:54:43;;;;;;;2.67;1.25;;;;;;;31.26;27.85;92930.47;5068234;28;20024;-34
2022/11/19 09:57:14;;;;;;;1.75;1.63;;;;;;;31.49;28.00;92929.25;5078614;28;20039;-34
2022/11/19 09:59:40;;;;;;;2.85;2.00;;;;;;;30.22;27.71;92927.88;5060054;28;20066;-34
2022/11/19 10:02:17;;;;;;;2.50;1.67;;;;;;;30.83;27.29;92920.03;5083091;28;20043;-34
2022/11/19 10:04:44;;;;;;;7.20;3.40;;;;;;;30.83;27.62;92909.34;5076915;28;20494;-34
2022/11/19 10:07:24;;;;;;;9.10;4.78;;;;;;;30.91;27.19;92903.03;5067572;28;20035;-34
2022/11/19 10:10:11;;;;;;;9.35;4.97;;;;;;;30.58;27.31;92899.81;5095395;28;20496;-34
2022/11/19 10:13:10;;;;;;;1.67;1.50;;;;;;;30.49;27.46;92889.06;5081844;28;20120;-34
2022/11/19 10:15:41;;;;;;;1.98;1.23;;;;;;;30.02;27.81;92892.75;5067590;28;20444;-34
2022/11/19 10:18:17;;;;;;;2.42;1.40;;;;;;;29.94;27.47;92888.38;5083126;28;20059;-34
2022/11/19 10:21:13;;;;;;;0.80;0.73;;;;;;;29.73;26.90;92880.94;5081698;28;20079;-34
2022/11/19 10:23:53;;;;;;;1.55;1.10;;;;;;;29.52;27.87;92884.91;5084313;28;20031;-34
2022/11/19 10:26:28;;;;;;;1.55;0.80;;;;;;;29.39;27.97;92874.75;5084105;28;20040;-34
2022/11/19 10:28:56;;;;;;;0.82;0.68;;;;;;;29.38;28.31;92872.59;5079724;28;20031;-34
2022/11/19 10:31:28;;;;;;;2.85;1.13;;;;;;;29.00;29.05;92867.00;5081233;28;20023;-34
2022/11/19 10:34:01;;;;;;;3.45;1.00;;;;;;;27.36;30.25;92853.81;5069913;28;20492;-36
2022/11/19 10:36:36;;;;;;;1.98;1.17;;;;;;;27.22;31.75;92851.38;5079152;28;20107;-36
2022/11/19 10:39:26;;;;;;;0.60;0.60;;;;;;;26.70;32.69;92855.78;5060707;28;20036;-36
2022/11/19 10:42:04;;;;;;;3.88;1.20;;;;;;;26.53;32.18;92868.06;5080634;28;20596;-36
2022/11/19 10:44:42;;;;;;;1.83;0.90;;;;;;;25.08;33.80;92869.56;5072755;28;20503;-36
2022/11/19 10:47:09;;;;;;;4.07;1.50;;;;;;;24.95;35.25;92867.72;5078514;28;20034;-36
2022/11/19 10:49:38;;;;;;;1.20;1.10;;;;;;;24.72;36.47;92864.16;5085410;28;20103;-36
2022/11/19 10:52:05;;;;;;;4.35;1.90;;;;;;;23.67;36.32;92876.69;5068352;28;20031;-36
2022/11/19 10:54:31;;;;;;;2.35;1.35;;;;;;;22.90;38.32;92861.78;5083296;28;20429;-36
2022/11/19 10:56:57;;;;;;;4.13;1.00;;;;;;;22.46;39.58;92869.16;5084211;28;20016;-35
2022/11/19 10:59:27;;;;;;;5.20;1.63;;;;;;;21.94;41.88;92874.69;5069552;28;20020;-35
2022/11/19 11:01:57;;;;;;;2.00;1.55;;;;;;;22.18;40.94;92870.78;5074342;28;20028;-36
2022/11/19 11:04:28;;;;;;;3.95;1.40;;;;;;;22.12;39.81;92881.06;5062960;28;20623;-35
2022/11/19 11:07:01;;;;;;;3.67;2.83;;;;;;;21.97;41.36;92867.75;5068336;28;20516;-35
2022/11/19 11:09:39;;;;;;;2.38;1.80;;;;;;;21.94;41.56;92872.56;5079254;28;20032;-36
2022/11/19 11:15:16;;;;;;;1.83;1.33;;;;;;;21.89;41.53;92868.84;5083834;28;20042;-35
2022/11/19 11:17:46;;;;;;;2.35;1.80;;;;;;;21.81;42.60;92876.19;5083754;28;20045;-36
2022/11/19 11:20:17;;;;;;;5.75;3.63;;;;;;;22.23;43.37;92874.50;5078901;28;20039;-36
2022/11/19 11:22:48;;;;;;;5.65;3.15;;;;;;;22.63;42.52;92870.56;5081669;28;20032;-36
2022/11/19 11:25:21;;;;;;;2.63;1.83;;;;;;;22.20;41.08;92867.34;5082946;28;20020;-35
2022/11/19 11:28:11;;;;;;;2.30;1.60;;;;;;;21.87;42.21;92860.34;5082932;28;20480;-35
2022/11/19 11:30:38;;;;;;;4.80;1.50;;;;;;;21.78;42.14;92874.66;5092674;28;20016;-35
2022/11/19 11:33:38;;;;;;;4.80;1.30;;;;;;;21.17;43.27;92862.81;5062170;28;20024;-35
2022/11/19 11:36:12;;;;;;;2.50;1.50;;;;;;;21.64;42.95;92845.94;5037008;28;20039;-35
2022/11/19 11:38:46;;;;;;;1.77;1.30;;;;;;;21.24;42.10;92846.97;5084676;28;20020;-36
2022/11/19 11:41:16;;;;;;;1.63;1.52;;;;;;;20.72;43.34;92862.09;5080421;28;20588;-36
2022/11/19 11:44:02;;;;;;;1.90;1.27;;;;;;;20.16;45.92;92851.66;5087642;28;20032;-35
2022/11/19 11:46:34;;;;;;;2.33;1.50;;;;;;;20.10;46.25;92865.34;5062727;28;20024;-35
2022/11/19 11:49:01;;;;;;;3.33;1.45;;;;;;;20.30;45.95;92871.97;5083117;28;20031;-35
2022/11/19 11:51:40;;;;;;;4.10;1.35;;;;;;;20.03;45.56;92860.81;5063311;28;20036;-35
2022/11/19 11:54:10;;;;;;;;;;;;;;;19.73;46.68;92860.00;5064719;28;20035;-35
2022/11/19 11:56:35;;;;;;;1.65;1.05;;;;;;;19.60;46.96;92857.91;5055799;28;19912;-35